Time;durP1;ratioP1;P1;durP2;ratioP2;P2;SDS_P1;SDS_P2;PMS_P1;PMS_P2;Temp;Humidity;BMP_temperature;BMP_pressure;BME280_temperature;BME280_humidity;BME280_pressure;Samples;Min_cycle;Max_cycle;Signal;HPM_P1;HPM_P2
2023/01/14 00:01:47;;;;;;;7.25;1.88;;;;;;;;;;5050900;28;20078;-80
2023/01/14 00:04:13;;;;;;;8.35;2.85;;;;;;;;;;5050782;28;20017;-79
2023/01/14 00:06:39;;;;;;;5.25;2.15;;;;;;;;;;5049419;28;20047;-81
2023/01/14 00:09:07;;;;;;;5.18;1.98;;;;;;;;;;5050056;28;20391;-79
2023/01/14 00:11:46;;;;;;;7.53;1.90;;;;;;;;;;5050925;28;20021;-79
2023/01/14 00:14:13;;;;;;;4.38;1.65;;;;;;;;;;5051046;28;20083;-78
2023/01/14 00:16:39;;;;;;;6.85;2.13;;;;;;;;;;5049328;28;20049;-78
2023/01/14 00:19:06;;;;;;;5.38;1.70;;;;;;;;;;5049955;28;20594;-79
2023/01/14 00:21:32;;;;;;;8.20;2.00;;;;;;;;;;5050765;28;20040;-79
2023/01/14 00:23:58;;;;;;;6.30;2.03;;;;;;;;;;5050561;28;20552;-78
2023/01/14 00:26:27;;;;;;;6.53;1.77;;;;;;;;;;5050638;28;20037;-79
2023/01/14 00:28:53;;;;;;;5.78;1.73;;;;;;;;;;5053632;28;20023;-77
2023/01/14 00:31:20;;;;;;;9.02;2.40;;;;;;;;;;5052973;28;20501;-76
2023/01/14 00:33:47;;;;;;;3.70;1.50;;;;;;;;;;5054199;28;20028;-78
2023/01/14 00:36:15;;;;;;;7.50;2.08;;;;;;;;;;5054119;28;20061;-77
2023/01/14 00:38:41;;;;;;;6.15;1.88;;;;;;;;;;5053192;28;20025;-77
2023/01/14 00:41:09;;;;;;;5.18;1.52;;;;;;;;;;5054078;28;20087;-78
2023/01/14 00:43:39;;;;;;;7.75;1.55;;;;;;;;;;5054059;28;20036;-78
2023/01/14 00:46:06;;;;;;;7.45;1.77;;;;;;;;;;5053729;28;20025;-78
2023/01/14 00:48:32;;;;;;;6.47;2.45;;;;;;;;;;5053277;28;20070;-78
2023/01/14 00:50:59;;;;;;;7.05;1.88;;;;;;;;;;5053686;28;20028;-79
2023/01/14 00:53:25;;;;;;;5.20;1.85;;;;;;;;;;5054044;28;20095;-79
2023/01/14 00:55:51;;;;;;;10.55;2.22;;;;;;;;;;5053653;28;20036;-78
2023/01/14 00:58:17;;;;;;;8.60;2.17;;;;;;;;;;5053122;28;20029;-79
2023/01/14 01:00:44;;;;;;;3.90;1.58;;;;;;;;;;5052766;28;20025;-79
2023/01/14 01:03:10;;;;;;;6.32;2.20;;;;;;;;;;5053621;28;20025;-78
2023/01/14 01:05:36;;;;;;;4.78;1.20;;;;;;;;;;5054710;28;20029;-79
2023/01/14 01:08:03;;;;;;;6.80;1.85;;;;;;;;;;5054967;28;20017;-79
2023/01/14 01:10:29;;;;;;;11.50;2.75;;;;;;;;;;5056775;28;20021;-80
2023/01/14 01:12:55;;;;;;;6.13;2.22;;;;;;;;;;5058080;28;20025;-80
2023/01/14 01:15:21;;;;;;;4.22;1.80;;;;;;;;;;5054837;28;20033;-77
2023/01/14 01:17:47;;;;;;;4.57;1.67;;;;;;;;;;5052588;28;20529;-78
2023/01/14 01:20:13;;;;;;;10.07;1.35;;;;;;;;;;5052189;28;20029;-79
2023/01/14 01:22:39;;;;;;;7.57;1.80;;;;;;;;;;5053754;28;20025;-78
2023/01/14 01:25:06;;;;;;;3.67;1.63;;;;;;;;;;5054652;28;20554;-80
2023/01/14 01:27:32;;;;;;;5.93;2.03;;;;;;;;;;5055377;28;20017;-79
2023/01/14 01:29:58;;;;;;;5.25;1.55;;;;;;;;;;5053694;28;20096;-79
2023/01/14 01:32:25;;;;;;;5.57;1.52;;;;;;;;;;5053104;28;20021;-80
2023/01/14 01:34:51;;;;;;;5.72;1.48;;;;;;;;;;5055329;28;20032;-79
2023/01/14 01:37:17;;;;;;;5.55;1.35;;;;;;;;;;5052784;28;20487;-78
2023/01/14 01:39:43;;;;;;;6.72;1.92;;;;;;;;;;5052168;28;20071;-77
2023/01/14 01:42:13;;;;;;;4.70;1.25;;;;;;;;;;5051833;28;20025;-78
2023/01/14 01:44:42;;;;;;;5.55;2.20;;;;;;;;;;5052756;28;20105;-78
2023/01/14 01:47:08;;;;;;;5.20;2.13;;;;;;;;;;5052220;28;20029;-78
2023/01/14 01:49:36;;;;;;;7.80;2.28;;;;;;;;;;5053218;28;20025;-77
2023/01/14 01:52:14;;;;;;;9.77;2.50;;;;;;;;;;5051852;28;20021;-78
2023/01/14 01:54:42;;;;;;;6.78;1.75;;;;;;;;;;5053357;28;20033;-78
2023/01/14 01:57:10;;;;;;;4.65;1.50;;;;;;;;;;5052746;28;20057;-79
2023/01/14 01:59:37;;;;;;;6.53;1.50;;;;;;;;;;5051585;28;20066;-78
2023/01/14 02:02:04;;;;;;;6.03;1.50;;;;;;;;;;5053036;28;20029;-78
2023/01/14 02:04:30;;;;;;;4.63;1.40;;;;;;;;;;5052859;28;20078;-79
2023/01/14 02:06:56;;;;;;;5.03;1.33;;;;;;;;;;5051276;28;20032;-78
2023/01/14 02:09:22;;;;;;;5.43;1.80;;;;;;;;;;5052161;28;20025;-79
2023/01/14 02:12:00;;;;;;;6.80;1.50;;;;;;;;;;5052818;28;20486;-78
2023/01/14 02:17:06;;;;;;;5.78;1.70;;;;;;;;;;5045715;28;20113;-78
2023/01/14 02:19:41;;;;;;;6.63;1.20;;;;;;;;;;5047004;28;20051;-78
2023/01/14 02:22:17;;;;;;;5.88;1.55;;;;;;;;;;5047800;28;20025;-78
2023/01/14 02:24:52;;;;;;;5.57;1.73;;;;;;;;;;5048032;28;20031;-79
2023/01/14 02:27:24;;;;;;;8.57;1.70;;;;;;;;;;5045489;28;20515;-79
2023/01/14 02:29:50;;;;;;;5.70;1.90;;;;;;;;;;5047799;28;20025;-78
2023/01/14 02:32:19;;;;;;;4.03;1.10;;;;;;;;;;5038575;28;20064;-77
2023/01/14 02:34:45;;;;;;;5.63;1.42;;;;;;;;;;5033477;28;20022;-78
2023/01/14 02:37:13;;;;;;;6.50;1.23;;;;;;;;;;5032252;28;20617;-77
2023/01/14 02:39:57;;;;;;;7.07;1.67;;;;;;;;;;5032314;28;20025;-76
2023/01/14 02:45:13;;;;;;;6.03;1.20;;;;;;;;;;5032053;28;20098;-77
2023/01/14 02:47:40;;;;;;;9.10;2.17;;;;;;;;;;5031140;28;20484;-77
2023/01/14 02:50:07;;;;;;;6.40;1.75;;;;;;;;;;5029927;28;20032;-77
2023/01/14 02:52:33;;;;;;;3.80;1.30;;;;;;;;;;5030188;28;20047;-77
2023/01/14 02:55:03;;;;;;;6.10;1.38;;;;;;;;;;5031583;28;20112;-77
2023/01/14 02:57:47;;;;;;;4.70;1.52;;;;;;;;;;5030912;28;20045;-77
2023/01/14 03:00:19;;;;;;;6.20;1.50;;;;;;;;;;5030569;28;20091;-78
2023/01/14 03:03:11;;;;;;;3.80;0.85;;;;;;;;;;5032663;28;20048;-78
2023/01/14 03:05:40;;;;;;;4.55;1.70;;;;;;;;;;5029725;28;20484;-78
2023/01/14 03:08:09;;;;;;;4.60;1.27;;;;;;;;;;5030820;28;20037;-77
2023/01/14 03:10:47;;;;;;;6.47;2.38;;;;;;;;;;5031350;28;20025;-77
2023/01/14 03:13:42;;;;;;;6.55;1.80;;;;;;;;;;5031466;28;20033;-76
2023/01/14 03:16:20;;;;;;;7.57;1.67;;;;;;;;;;5017296;28;20099;-77
2023/01/14 03:19:09;;;;;;;6.43;1.20;;;;;;;;;;5031079;28;20358;-77
2023/01/14 03:21:37;;;;;;;5.60;1.52;;;;;;;;;;5026007;28;20098;-77
2023/01/14 03:24:23;;;;;;;3.72;1.60;;;;;;;;;;5031168;28;20025;-77
2023/01/14 03:26:51;;;;;;;5.47;1.02;;;;;;;;;;5029691;28;20404;-77
2023/01/14 03:29:20;;;;;;;4.35;1.38;;;;;;;;;;5030301;28;20021;-77
2023/01/14 03:32:05;;;;;;;5.82;1.67;;;;;;;;;;5030757;28;20045;-77
2023/01/14 03:34:51;;;;;;;4.93;1.20;;;;;;;;;;5031145;28;20057;-77
2023/01/14 03:37:19;;;;;;;5.55;1.75;;;;;;;;;;5030390;28;20503;-78
2023/01/14 03:39:46;;;;;;;7.90;2.25;;;;;;;;;;5031066;28;20013;-77
2023/01/14 03:42:19;;;;;;;7.45;2.60;;;;;;;;;;5030709;28;20075;-78
2023/01/14 03:44:57;;;;;;;7.35;1.98;;;;;;;;;;5030732;28;20101;-78
2023/01/14 03:47:24;;;;;;;5.90;1.90;;;;;;;;;;5030236;28;20530;-77
2023/01/14 03:49:51;;;;;;;7.80;1.77;;;;;;;;;;5030989;28;20026;-78
2023/01/14 03:52:35;;;;;;;9.27;1.90;;;;;;;;;;5029692;28;20025;-78
2023/01/14 03:55:05;;;;;;;9.93;1.92;;;;;;;;;;5029883;28;20030;-78
2023/01/14 03:57:45;;;;;;;8.00;1.70;;;;;;;;;;5028965;28;20124;-77
2023/01/14 04:00:14;;;;;;;5.85;1.30;;;;;;;;;;5031400;28;20483;-78
2023/01/14 04:02:40;;;;;;;5.78;1.55;;;;;;;;;;5031772;28;20517;-77
2023/01/14 04:05:07;;;;;;;7.60;1.80;;;;;;;;;;5035014;28;20476;-77
2023/01/14 04:07:33;;;;;;;6.72;1.60;;;;;;;;;;5033245;28;20028;-76
2023/01/14 04:09:59;;;;;;;9.02;1.90;;;;;;;;;;5034859;28;20021;-77
2023/01/14 04:12:25;;;;;;;5.78;1.77;;;;;;;;;;5033484;28;20021;-77
2023/01/14 04:17:37;;;;;;;6.38;1.27;;;;;;;;;;5033982;28;20043;-78
2023/01/14 04:20:04;;;;;;;2.95;1.27;;;;;;;;;;5034455;28;20057;-78
2023/01/14 04:22:30;;;;;;;4.80;1.80;;;;;;;;;;5033257;28;20037;-79
2023/01/14 04:24:56;;;;;;;4.97;1.63;;;;;;;;;;5032855;28;20032;-78
2023/01/14 04:27:22;;;;;;;8.30;2.30;;;;;;;;;;5033395;28;20026;-78
2023/01/14 04:29:48;;;;;;;3.33;1.85;;;;;;;;;;5034186;28;20113;-77
2023/01/14 04:32:14;;;;;;;3.88;1.45;;;;;;;;;;5034263;28;20030;-77
2023/01/14 04:34:40;;;;;;;8.25;1.52;;;;;;;;;;5033048;28;20075;-76
2023/01/14 04:37:07;;;;;;;8.45;1.73;;;;;;;;;;5032368;28;20030;-76
2023/01/14 04:39:34;;;;;;;4.03;1.50;;;;;;;;;;5033824;28;20125;-77
2023/01/14 04:44:46;;;;;;;4.65;1.25;;;;;;;;;;5033819;28;20186;-77
2023/01/14 04:47:12;;;;;;;7.35;1.88;;;;;;;;;;5032292;28;20032;-77
2023/01/14 04:49:38;;;;;;;6.97;1.50;;;;;;;;;;5032569;28;20422;-77
2023/01/14 04:52:05;;;;;;;9.23;1.95;;;;;;;;;;5033996;28;20025;-76
2023/01/14 04:54:31;;;;;;;10.50;2.03;;;;;;;;;;5032639;28;20467;-77
2023/01/14 04:56:57;;;;;;;5.25;1.13;;;;;;;;;;5034080;28;20026;-77
2023/01/14 04:59:23;;;;;;;5.70;1.95;;;;;;;;;;5032778;28;20060;-77
2023/01/14 05:01:48;;;;;;;7.57;2.00;;;;;;;;;;5032526;28;20323;-76
2023/01/14 05:04:16;;;;;;;7.10;1.65;;;;;;;;;;5032495;28;20021;-77
2023/01/14 05:06:42;;;;;;;11.93;2.20;;;;;;;;;;5033505;28;20040;-76
2023/01/14 05:09:08;;;;;;;10.73;1.92;;;;;;;;;;5032977;28;20017;-77
2023/01/14 05:11:34;;;;;;;9.38;1.90;;;;;;;;;;5033493;28;20415;-78
2023/01/14 05:14:00;;;;;;;4.78;1.50;;;;;;;;;;5033154;28;20476;-77
2023/01/14 05:16:27;;;;;;;5.75;1.35;;;;;;;;;;5033472;28;20034;-77
2023/01/14 05:18:53;;;;;;;6.32;2.33;;;;;;;;;;5031383;28;20033;-77
2023/01/14 05:21:19;;;;;;;12.35;2.72;;;;;;;;;;5033296;28;20490;-77
2023/01/14 05:23:45;;;;;;;4.78;2.25;;;;;;;;;;5032302;28;20025;-78
2023/01/14 05:26:11;;;;;;;7.30;1.50;;;;;;;;;;5033141;28;20537;-77
2023/01/14 05:28:37;;;;;;;10.57;2.50;;;;;;;;;;5032371;28;20033;-77
2023/01/14 05:31:04;;;;;;;4.57;1.42;;;;;;;;;;5033154;28;20494;-77
2023/01/14 05:33:30;;;;;;;9.23;2.00;;;;;;;;;;5032961;28;20021;-77
2023/01/14 05:36:00;;;;;;;9.63;1.88;;;;;;;;;;5032923;28;20026;-77
2023/01/14 05:38:26;;;;;;;7.75;2.47;;;;;;;;;;5032267;28;20030;-76
2023/01/14 05:40:53;;;;;;;5.43;1.67;;;;;;;;;;5032665;28;20057;-76
2023/01/14 05:46:08;;;;;;;7.18;2.08;;;;;;;;;;5033001;28;20108;-76
2023/01/14 05:48:34;;;;;;;9.02;3.00;;;;;;;;;;5032402;28;20022;-77
2023/01/14 05:51:01;;;;;;;13.27;2.08;;;;;;;;;;5032658;28;20031;-77
2023/01/14 05:53:27;;;;;;;9.82;3.03;;;;;;;;;;5032891;28;20022;-78
2023/01/14 05:55:54;;;;;;;9.02;1.83;;;;;;;;;;5032372;28;20025;-78
2023/01/14 05:58:20;;;;;;;6.43;1.80;;;;;;;;;;5031657;28;20487;-77
2023/01/14 06:06:29;;;;;;;5.15;1.45;;;;;;;;;;5032976;28;20095;-77
2023/01/14 06:08:58;;;;;;;6.30;2.30;;;;;;;;;;5031958;28;20018;-77
2023/01/14 06:11:25;;;;;;;9.20;2.10;;;;;;;;;;5032721;28;20026;-77
2023/01/14 06:13:52;;;;;;;7.25;2.17;;;;;;;;;;5032703;28;20028;-77
2023/01/14 06:16:18;;;;;;;6.07;2.05;;;;;;;;;;5032365;28;20032;-77
2023/01/14 06:18:45;;;;;;;10.70;2.28;;;;;;;;;;5031874;28;20033;-77
2023/01/14 06:21:19;;;;;;;6.63;1.95;;;;;;;;;;5031010;28;20108;-77
2023/01/14 06:23:45;;;;;;;9.75;2.45;;;;;;;;;;5032272;28;20028;-77
2023/01/14 06:26:12;;;;;;;6.78;1.75;;;;;;;;;;5031499;28;20017;-77
2023/01/14 06:28:39;;;;;;;5.90;1.42;;;;;;;;;;5031353;28;20021;-77
2023/01/14 06:31:12;;;;;;;6.47;1.85;;;;;;;;;;5033225;28;20025;-77
2023/01/14 06:33:38;;;;;;;8.00;1.83;;;;;;;;;;5032472;28;20037;-77
2023/01/14 06:36:05;;;;;;;11.50;2.08;;;;;;;;;;5031056;28;20071;-77
2023/01/14 06:38:31;;;;;;;5.60;1.67;;;;;;;;;;5031143;28;20510;-77
2023/01/14 06:41:00;;;;;;;7.88;1.50;;;;;;;;;;5030454;28;20029;-78
2023/01/14 06:43:27;;;;;;;7.00;2.05;;;;;;;;;;5032177;28;20029;-77
2023/01/14 06:45:54;;;;;;;7.18;1.30;;;;;;;;;;5033007;28;20025;-78
2023/01/14 06:48:20;;;;;;;6.80;1.80;;;;;;;;;;5030615;28;20025;-78
2023/01/14 06:50:46;;;;;;;9.63;2.58;;;;;;;;;;5031216;28;20028;-77
2023/01/14 06:53:12;;;;;;;9.80;1.85;;;;;;;;;;5031772;28;20105;-77
2023/01/14 06:55:38;;;;;;;5.50;1.80;;;;;;;;;;5031525;28;20369;-77
2023/01/14 06:58:04;;;;;;;8.07;1.77;;;;;;;;;;5030690;28;20083;-78
2023/01/14 07:00:30;;;;;;;7.65;1.65;;;;;;;;;;5031667;28;20026;-77
2023/01/14 07:02:56;;;;;;;6.07;1.45;;;;;;;;;;5030769;28;20049;-78
2023/01/14 07:05:22;;;;;;;6.53;1.77;;;;;;;;;;5026921;28;20087;-78
2023/01/14 07:07:49;;;;;;;7.97;1.63;;;;;;;;;;5019534;28;20022;-77
2023/01/14 07:10:15;;;;;;;9.73;2.10;;;;;;;;;;5025770;28;20044;-78
2023/01/14 07:12:46;;;;;;;4.57;1.30;;;;;;;;;;5029025;28;20017;-78
2023/01/14 07:15:12;;;;;;;7.05;2.30;;;;;;;;;;5031359;28;20083;-79
2023/01/14 07:17:39;;;;;;;10.38;2.13;;;;;;;;;;5031011;28;20037;-78
2023/01/14 07:20:06;;;;;;;4.80;1.67;;;;;;;;;;5031749;28;20116;-77
2023/01/14 07:22:32;;;;;;;6.10;1.77;;;;;;;;;;5030498;28;20037;-77
2023/01/14 07:25:01;;;;;;;7.95;2.08;;;;;;;;;;5031604;28;20028;-76
2023/01/14 07:27:27;;;;;;;4.68;1.77;;;;;;;;;;5030698;28;20026;-78
2023/01/14 07:29:53;;;;;;;8.77;1.80;;;;;;;;;;5029819;28;20052;-78
2023/01/14 07:32:19;;;;;;;5.28;1.60;;;;;;;;;;5031158;28;20113;-77
2023/01/14 07:34:45;;;;;;;7.10;1.70;;;;;;;;;;5031449;28;20073;-77
2023/01/14 07:37:11;;;;;;;4.47;1.45;;;;;;;;;;5030332;28;20511;-77
2023/01/14 07:39:37;;;;;;;4.47;1.58;;;;;;;;;;5024667;28;20045;-77
2023/01/14 07:42:03;;;;;;;7.80;2.78;;;;;;;;;;5030960;28;20041;-77
2023/01/14 07:44:29;;;;;;;6.70;2.25;;;;;;;;;;5031220;28;20022;-78
2023/01/14 07:46:55;;;;;;;8.43;1.90;;;;;;;;;;5030867;28;20028;-77
2023/01/14 07:49:21;;;;;;;6.95;2.65;;;;;;;;;;5030264;28;20022;-77
2023/01/14 07:51:48;;;;;;;9.88;2.80;;;;;;;;;;5030719;28;20021;-77
2023/01/14 07:54:14;;;;;;;8.50;2.45;;;;;;;;;;5029372;28;20021;-77
2023/01/14 07:56:40;;;;;;;6.53;1.92;;;;;;;;;;5028818;28;20100;-77
2023/01/14 07:59:06;;;;;;;10.15;2.78;;;;;;;;;;5030106;28;20029;-78
2023/01/14 08:01:32;;;;;;;11.35;2.58;;;;;;;;;;5030677;28;20344;-78
2023/01/14 08:03:59;;;;;;;7.20;1.98;;;;;;;;;;5031350;28;20379;-78
2023/01/14 08:06:25;;;;;;;6.55;1.60;;;;;;;;;;5030724;28;20109;-78
2023/01/14 08:08:51;;;;;;;6.22;2.60;;;;;;;;;;5028742;28;20068;-77
2023/01/14 08:11:17;;;;;;;9.23;2.08;;;;;;;;;;5030984;28;20144;-77
2023/01/14 08:13:43;;;;;;;6.55;2.78;;;;;;;;;;5030845;28;20068;-77
2023/01/14 08:16:09;;;;;;;9.27;2.88;;;;;;;;;;5042563;22;20077;-78
2023/01/14 08:18:38;;;;;;;8.98;2.40;;;;;;;;;;5030809;28;20057;-75
2023/01/14 08:21:05;;;;;;;17.20;3.28;;;;;;;;;;5030875;28;20376;-72
2023/01/14 08:23:34;;;;;;;8.40;2.75;;;;;;;;;;5030805;28;20022;-74
2023/01/14 08:26:05;;;;;;;8.02;1.80;;;;;;;;;;5031150;28;20096;-75
2023/01/14 08:28:32;;;;;;;5.63;1.90;;;;;;;;;;5029402;28;20459;-74
2023/01/14 08:31:02;;;;;;;7.90;2.35;;;;;;;;;;5029280;28;20029;-75
2023/01/14 08:33:28;;;;;;;6.68;2.22;;;;;;;;;;5030970;28;20049;-74
2023/01/14 08:35:53;;;;;;;10.90;2.40;;;;;;;;;;5031228;28;20030;-74
2023/01/14 08:38:20;;;;;;;6.88;1.98;;;;;;;;;;5031502;28;20030;-76
2023/01/14 08:40:48;;;;;;;7.13;1.80;;;;;;;;;;5031518;28;20107;-76
2023/01/14 08:43:14;;;;;;;3.80;1.55;;;;;;;;;;5032393;28;20032;-74
2023/01/14 08:45:41;;;;;;;6.25;1.70;;;;;;;;;;5041039;28;20030;-74
2023/01/14 08:48:07;;;;;;;9.02;2.35;;;;;;;;;;5043586;28;20028;-73
2023/01/14 08:50:33;;;;;;;8.38;2.05;;;;;;;;;;5046390;28;20025;-74
2023/01/14 08:52:59;;;;;;;6.18;1.75;;;;;;;;;;5055228;28;20025;-75
2023/01/14 08:55:25;;;;;;;6.68;2.55;;;;;;;;;;5055191;28;20158;-75
2023/01/14 08:57:51;;;;;;;14.32;3.30;;;;;;;;;;5053615;28;20063;-76
2023/01/14 09:00:17;;;;;;;8.48;2.38;;;;;;;;;;5055169;28;20029;-75
2023/01/14 09:02:43;;;;;;;8.48;3.20;;;;;;;;;;5054731;28;20028;-74
2023/01/14 09:05:10;;;;;;;14.18;5.05;;;;;;;;;;5053089;28;20249;-74
2023/01/14 09:18:35;;;;;;;8.20;3.03;;;;;;;;;;5054520;28;20067;-75
2023/01/14 09:21:01;;;;;;;9.55;2.60;;;;;;;;;;5050942;28;20074;-72
2023/01/14 09:23:27;;;;;;;10.52;3.05;;;;;;;;;;5041909;28;20498;-77
2023/01/14 09:25:53;;;;;;;10.65;3.40;;;;;;;;;;5040644;28;20052;-73
2023/01/14 09:28:19;;;;;;;9.80;2.83;;;;;;;;;;5039431;28;20758;-75
2023/01/14 09:30:46;;;;;;;5.53;2.22;;;;;;;;;;5042149;28;20044;-74
2023/01/14 09:33:12;;;;;;;11.15;3.25;;;;;;;;;;5036919;28;20025;-75
2023/01/14 09:35:38;;;;;;;8.07;2.72;;;;;;;;;;5029803;28;20552;-74
2023/01/14 09:38:04;;;;;;;5.57;1.80;;;;;;;;;;5030315;28;20395;-74
2023/01/14 09:40:30;;;;;;;11.77;2.65;;;;;;;;;;5030255;28;20026;-76
2023/01/14 09:42:57;;;;;;;15.77;2.67;;;;;;;;;;5030840;28;20437;-74
2023/01/14 09:45:31;;;;;;;6.43;2.35;;;;;;;;;;5031562;28;20349;-73
2023/01/14 09:48:07;;;;;;;7.03;2.08;;;;;;;;;;5033112;28;20025;-73
2023/01/14 09:50:42;;;;;;;9.77;2.50;;;;;;;;;;5033499;28;20474;-74
2023/01/14 09:53:14;;;;;;;10.07;2.67;;;;;;;;;;5033167;28;20083;-72
2023/01/14 09:55:43;;;;;;;8.43;2.05;;;;;;;;;;5033582;28;20436;-74
2023/01/14 09:58:13;;;;;;;10.00;3.08;;;;;;;;;;5031319;28;20033;-75
2023/01/14 10:01:05;;;;;;;8.68;2.35;;;;;;;;;;5031807;28;20030;-74
2023/01/14 10:03:34;;;;;;;10.65;3.00;;;;;;;;;;5038315;28;20059;-76
2023/01/14 10:06:06;;;;;;;8.07;2.22;;;;;;;;;;5038949;28;20055;-74
2023/01/14 10:08:41;;;;;;;8.73;2.35;;;;;;;;;;5044347;28;20483;-75
2023/01/14 10:11:07;;;;;;;9.85;3.00;;;;;;;;;;5036560;28;20426;-74
2023/01/14 10:13:39;;;;;;;7.53;2.35;;;;;;;;;;5035086;28;20052;-75
2023/01/14 10:16:13;;;;;;;3.83;1.60;;;;;;;;;;5031836;28;20040;-74
2023/01/14 10:18:57;;;;;;;14.38;2.25;;;;;;;;;;5032567;28;20032;-74
2023/01/14 10:21:30;;;;;;;12.98;2.58;;;;;;;;;;5037914;28;20032;-76
2023/01/14 10:23:56;;;;;;;8.98;2.58;;;;;;;;;;5044460;28;20107;-74
2023/01/14 10:26:23;;;;;;;11.27;2.65;;;;;;;;;;5052637;28;20021;-74
2023/01/14 10:28:51;;;;;;;11.07;2.88;;;;;;;;;;5052561;28;20021;-74
2023/01/14 10:31:25;;;;;;;9.25;2.28;;;;;;;;;;5048977;28;20022;-72
2023/01/14 10:33:52;;;;;;;9.98;3.08;;;;;;;;;;5041426;28;20162;-73
2023/01/14 10:36:21;;;;;;;9.82;2.67;;;;;;;;;;5043921;28;20397;-74
2023/01/14 10:38:47;;;;;;;8.13;2.17;;;;;;;;;;5050738;28;20024;-73
2023/01/14 10:41:14;;;;;;;7.05;2.45;;;;;;;;;;5051311;28;20029;-74
2023/01/14 10:43:46;;;;;;;7.25;2.15;;;;;;;;;;5052535;28;20121;-74
2023/01/14 10:46:17;;;;;;;10.32;2.08;;;;;;;;;;5050652;28;20079;-74
2023/01/14 10:48:58;;;;;;;6.63;1.83;;;;;;;;;;5051915;28;20472;-75
2023/01/14 10:51:49;;;;;;;7.35;2.53;;;;;;;;;;5052186;28;20021;-75
2023/01/14 10:54:19;;;;;;;6.93;1.80;;;;;;;;;;5052403;28;20100;-75
2023/01/14 10:56:53;;;;;;;9.07;2.90;;;;;;;;;;5051047;28;20029;-74
2023/01/14 10:59:22;;;;;;;10.40;1.77;;;;;;;;;;5050782;28;20466;-74
2023/01/14 11:01:48;;;;;;;9.40;1.63;;;;;;;;;;5052066;28;20077;-73
2023/01/14 11:04:14;;;;;;;7.95;2.38;;;;;;;;;;5051990;28;20047;-74
2023/01/14 11:06:40;;;;;;;10.63;2.35;;;;;;;;;;5052245;28;20467;-75
2023/01/14 11:09:15;;;;;;;9.18;2.88;;;;;;;;;;5051797;28;20029;-74
2023/01/14 11:11:43;;;;;;;4.72;1.65;;;;;;;;;;5051335;28;20056;-75
2023/01/14 11:14:19;;;;;;;13.82;2.58;;;;;;;;;;5051926;28;20040;-74
2023/01/14 11:16:45;;;;;;;5.72;1.88;;;;;;;;;;5051749;28;20083;-75
2023/01/14 11:19:14;;;;;;;9.18;1.98;;;;;;;;;;5051563;28;20090;-73
2023/01/14 11:21:42;;;;;;;8.45;2.33;;;;;;;;;;5051799;28;20032;-75
2023/01/14 11:24:28;;;;;;;10.25;2.13;;;;;;;;;;5051657;28;20049;-75
2023/01/14 11:27:01;;;;;;;7.68;2.40;;;;;;;;;;5051440;28;20021;-74
2023/01/14 11:29:29;;;;;;;10.02;2.40;;;;;;;;;;5051821;28;20028;-74
2023/01/14 11:31:56;;;;;;;8.68;2.70;;;;;;;;;;5051648;28;20013;-75
2023/01/14 11:34:30;;;;;;;7.10;2.00;;;;;;;;;;5051934;28;20053;-75
2023/01/14 11:37:17;;;;;;;6.80;2.40;;;;;;;;;;5051749;28;20432;-73
2023/01/14 11:39:55;;;;;;;11.15;2.55;;;;;;;;;;5051678;28;20036;-74
2023/01/14 11:42:29;;;;;;;9.32;1.92;;;;;;;;;;5050498;28;20041;-73
2023/01/14 11:44:58;;;;;;;8.90;2.40;;;;;;;;;;5052012;28;20033;-75
2023/01/14 11:47:26;;;;;;;5.15;1.90;;;;;;;;;;5050250;28;20079;-74
2023/01/14 11:50:11;;;;;;;7.32;2.25;;;;;;;;;;5051346;28;20025;-74
2023/01/14 11:52:40;;;;;;;7.95;2.08;;;;;;;;;;5051416;28;20380;-74
2023/01/14 11:55:13;;;;;;;8.95;2.17;;;;;;;;;;5051502;28;20099;-74
2023/01/14 11:57:40;;;;;;;6.65;2.17;;;;;;;;;;5051234;28;20032;-74
2023/01/14 12:00:09;;;;;;;15.27;3.53;;;;;;;;;;5051711;28;20533;-72
2023/01/14 12:02:39;;;;;;;10.35;2.38;;;;;;;;;;5042878;28;20033;-73
2023/01/14 12:05:11;;;;;;;9.90;2.38;;;;;;;;;;5034860;28;20109;-74
2023/01/14 12:07:37;;;;;;;7.03;2.20;;;;;;;;;;5041876;28;20100;-74
2023/01/14 12:10:12;;;;;;;8.77;2.25;;;;;;;;;;5038019;28;20022;-74
2023/01/14 12:18:27;;;;;;;7.57;2.28;;;;;;;;;;5030464;28;20040;-76
2023/01/14 12:20:53;;;;;;;5.82;2.15;;;;;;;;;;5031030;28;20373;-75
2023/01/14 12:23:21;;;;;;;7.43;2.03;;;;;;;;;;5033340;28;20033;-75
2023/01/14 12:25:49;;;;;;;8.82;2.80;;;;;;;;;;5035178;28;20251;-75
2023/01/14 12:28:25;;;;;;;4.43;2.10;;;;;;;;;;5035601;28;20083;-77
2023/01/14 12:30:52;;;;;;;8.27;2.10;;;;;;;;;;5035535;28;20057;-74
2023/01/14 12:33:22;;;;;;;8.90;2.80;;;;;;;;;;5034538;28;20018;-75
2023/01/14 12:35:51;;;;;;;5.15;1.98;;;;;;;;;;5036542;28;20076;-74
2023/01/14 12:46:43;;;;;;;14.73;4.63;;;;;;;;;;5049795;28;20174;-72
2023/01/14 12:49:09;;;;;;;36.40;17.88;;;;;;;;;;5048364;28;20121;-71
2023/01/14 12:51:36;;;;;;;19.23;8.63;;;;;;;;;;5055917;28;20021;-73
2023/01/14 12:54:05;;;;;;;6.55;1.92;;;;;;;;;;5049003;28;20372;-72
2023/01/14 12:56:33;;;;;;;10.15;3.20;;;;;;;;;;5035297;28;20025;-72
2023/01/14 12:59:01;;;;;;;7.40;2.75;;;;;;;;;;5034838;28;20044;-72
2023/01/14 13:01:30;;;;;;;8.52;2.78;;;;;;;;;;5034578;28;20059;-72
2023/01/14 13:04:02;;;;;;;15.48;3.42;;;;;;;;;;5034290;28;20032;-72
2023/01/14 13:06:31;;;;;;;7.03;2.22;;;;;;;;;;5032687;28;20445;-70
2023/01/14 13:08:58;;;;;;;7.03;2.58;;;;;;;;;;5046665;28;20060;-71
2023/01/14 13:11:26;;;;;;;11.02;3.42;;;;;;;;;;5036246;28;20021;-73
2023/01/14 13:13:53;;;;;;;13.35;4.45;;;;;;;;;;5033504;28;20090;-73
2023/01/14 13:16:36;;;;;;;7.53;2.83;;;;;;;;;;5033712;28;20033;-75
2023/01/14 13:19:04;;;;;;;12.77;3.17;;;;;;;;;;5034403;28;20029;-74
2023/01/14 13:21:49;;;;;;;9.65;2.88;;;;;;;;;;5033372;28;20391;-72
2023/01/14 13:24:26;;;;;;;10.77;3.10;;;;;;;;;;5034566;28;20483;-76
2023/01/14 13:26:54;;;;;;;16.15;3.72;;;;;;;;;;5034247;28;20033;-74
2023/01/14 13:29:24;;;;;;;8.00;2.58;;;;;;;;;;5034834;28;20036;-73
2023/01/14 13:31:52;;;;;;;17.02;8.02;;;;;;;;;;5033635;28;20025;-75
2023/01/14 13:34:22;;;;;;;9.77;3.42;;;;;;;;;;5034608;28;20189;-74
2023/01/14 13:37:00;;;;;;;23.50;9.70;;;;;;;;;;5034978;28;20026;-74
2023/01/14 13:39:27;;;;;;;8.65;2.60;;;;;;;;;;5034215;28;20025;-74
2023/01/14 13:41:55;;;;;;;9.10;3.78;;;;;;;;;;5033727;28;20033;-72
2023/01/14 13:44:30;;;;;;;28.63;12.13;;;;;;;;;;5034631;28;20036;-73
2023/01/14 13:47:01;;;;;;;14.93;6.22;;;;;;;;;;5034095;28;20029;-72
2023/01/14 13:49:37;;;;;;;16.70;5.45;;;;;;;;;;5033512;28;20081;-75
2023/01/14 13:52:15;;;;;;;10.38;4.47;;;;;;;;;;5033627;28;20030;-73
2023/01/14 13:54:41;;;;;;;9.13;3.47;;;;;;;;;;5033373;28;20045;-74
2023/01/14 13:57:07;;;;;;;9.55;3.28;;;;;;;;;;5033134;28;20026;-74
2023/01/14 13:59:34;;;;;;;17.70;8.20;;;;;;;;;;5033352;28;20486;-74
2023/01/14 14:02:00;;;;;;;13.85;4.63;;;;;;;;;;5033105;28;20415;-75
2023/01/14 14:04:44;;;;;;;19.00;8.80;;;;;;;;;;5033189;28;20028;-75
2023/01/14 14:07:30;;;;;;;16.80;6.70;;;;;;;;;;5032858;28;20021;-74
2023/01/14 14:09:59;;;;;;;18.85;7.65;;;;;;;;;;5033086;28;20080;-74
2023/01/14 14:15:19;;;;;;;10.02;2.60;;;;;;;;;;5031349;28;20047;-73
2023/01/14 14:17:48;;;;;;;14.75;4.78;;;;;;;;;;5032213;28;20107;-74
2023/01/14 14:20:17;;;;;;;17.23;6.90;;;;;;;;;;5031031;28;20026;-74
2023/01/14 14:22:47;;;;;;;10.70;2.42;;;;;;;;;;5030996;28;20025;-73
2023/01/14 14:25:16;;;;;;;7.80;2.67;;;;;;;;;;5031328;28;20025;-73
2023/01/14 14:27:45;;;;;;;15.40;5.53;;;;;;;;;;5032601;28;20075;-74
2023/01/14 14:30:11;;;;;;;24.42;8.18;;;;;;;;;;5033275;28;20022;-73
2023/01/14 14:32:39;;;;;;;7.97;2.00;;;;;;;;;;5032499;28;20026;-73
2023/01/14 14:35:16;;;;;;;13.80;5.32;;;;;;;;;;5032592;28;20022;-73
2023/01/14 14:37:46;;;;;;;9.13;2.45;;;;;;;;;;5032425;28;20025;-74
2023/01/14 14:40:20;;;;;;;9.32;3.25;;;;;;;;;;5032544;28;20025;-73
2023/01/14 14:42:46;;;;;;;8.68;3.83;;;;;;;;;;5032693;28;20026;-73
2023/01/14 14:45:26;;;;;;;12.23;3.90;;;;;;;;;;5030425;28;20035;-73
2023/01/14 14:47:53;;;;;;;8.50;3.25;;;;;;;;;;5032281;28;20032;-74
2023/01/14 14:50:29;;;;;;;8.80;2.47;;;;;;;;;;5032425;28;20022;-74
2023/01/14 14:52:55;;;;;;;8.52;2.78;;;;;;;;;;5030898;28;20092;-74
2023/01/14 14:55:21;;;;;;;17.75;8.05;;;;;;;;;;5032357;28;20025;-74
2023/01/14 14:57:47;;;;;;;11.32;3.35;;;;;;;;;;5032007;28;20084;-73
2023/01/14 15:00:17;;;;;;;12.20;4.25;;;;;;;;;;5032457;28;20048;-73
2023/01/14 15:02:56;;;;;;;8.00;2.97;;;;;;;;;;5032186;28;20495;-73
2023/01/14 15:05:22;;;;;;;15.10;3.97;;;;;;;;;;5031856;28;20503;-73
2023/01/14 15:07:49;;;;;;;12.50;3.15;;;;;;;;;;5031714;28;20022;-73
2023/01/14 15:10:16;;;;;;;8.00;3.03;;;;;;;;;;5031083;28;20344;-71
2023/01/14 15:12:42;;;;;;;10.60;3.63;;;;;;;;;;5031805;28;20135;-72
2023/01/14 15:15:19;;;;;;;12.02;2.65;;;;;;;;;;5032123;28;20032;-73
2023/01/14 15:17:46;;;;;;;9.80;3.30;;;;;;;;;;5032637;28;20033;-74
2023/01/14 15:20:13;;;;;;;8.07;3.05;;;;;;;;;;5032093;28;20036;-73
2023/01/14 15:22:39;;;;;;;7.95;3.00;;;;;;;;;;5030651;28;20599;-73
2023/01/14 15:25:07;;;;;;;10.68;3.35;;;;;;;;;;5031828;28;20017;-73
2023/01/14 15:27:33;;;;;;;5.78;2.25;;;;;;;;;;5031932;28;20488;-73
2023/01/14 15:30:01;;;;;;;7.10;2.17;;;;;;;;;;5032518;28;20021;-74
2023/01/14 15:32:27;;;;;;;8.00;3.25;;;;;;;;;;5031984;28;20032;-74
2023/01/14 15:34:53;;;;;;;12.90;5.75;;;;;;;;;;5031946;28;20036;-74
2023/01/14 15:37:27;;;;;;;6.97;2.53;;;;;;;;;;5031424;28;20395;-74
2023/01/14 15:39:54;;;;;;;6.00;2.40;;;;;;;;;;5031976;28;20383;-74